Main page
METAR-TAF:

METAR-TAF

Airports :

Luxeuil-les-Bains, France

Luxeuil Air Base

latitude: 47-47N, longitude: 006-21E, elevation: 278 m

Current weather observation

The report was made 26 minutes ago, at 11:30 UTC
Temperature 14°C
Humidity 44%
Pressure 1021 hPa
Visibility 10 km or more

METAR: LFSX 261130Z AUTO /////KT 9999 NCD 14/02 Q1021

Time: 13:56 (11:56 UTC)

Forecast

The report was made 3 hours and 56 minutes ago, at 08:00 UTC
Forecast valid from 26 at 09 UTC to 27 at 09 UTC
Wind 10 kt from the West
Visibility 10 km or more
no clouds below 1500 m and no cumulonimbus

TAF: LFSX 260800Z 2609/2709 28010KT CAVOK

Weather observations and forecasts of more than 4000 airports (METAR and TAF reports).

The available stations are represented by yellow and red dots on the map.

Hover mouse over dot to see the name of the station.

Then click to see weather observations and forecasts.

To change the map : click on the green buttons with a black cross to zoom in, on the green button with a dash to zoom out, or on the green arrows for adjacent maps.


METAR-TAF: